createdAt,value
2023-03-29T03:48:47.445Z,101263.81
2023-03-29T03:51:54.176Z,101263.81
2023-03-29T03:54:56.856Z,101261.50
2023-03-29T03:58:01.971Z,101268.44
2023-03-29T04:01:05.738Z,101263.25
2023-03-29T04:04:10.908Z,101267.56
2023-03-29T04:07:14.360Z,101270.22
2023-03-29T04:10:17.289Z,101270.16
2023-03-29T04:13:21.683Z,101271.03
2023-03-29T04:16:34.024Z,101273.63
2023-03-29T04:19:37.562Z,101278.81
2023-03-29T04:22:41.171Z,101266.81
2023-03-29T04:25:43.901Z,101272.88
2023-03-29T04:28:47.616Z,101267.78
2023-03-29T04:31:50.379Z,101256.69
2023-03-29T04:34:53.597Z,101256.81
2023-03-29T04:37:56.231Z,101259.44
2023-03-29T04:41:01.140Z,101262.03
2023-03-29T04:44:04.581Z,101262.03
2023-03-29T04:47:07.302Z,101265.47
2023-03-29T04:50:12.927Z,101266.41
2023-03-29T04:53:17.076Z,101263.97
2023-03-29T04:56:19.636Z,101265.03
2023-03-29T04:59:23.651Z,101277.22
2023-03-29T05:02:27.279Z,101276.53
2023-03-29T05:05:31.360Z,101276.66
2023-03-29T05:08:39.923Z,101279.31
2023-03-29T05:11:43.842Z,101275.13
2023-03-29T05:14:47.123Z,101276.94
2023-03-29T05:17:49.816Z,101272.66
2023-03-29T05:20:54.007Z,101271.06
2023-03-29T05:23:57.044Z,101275.41
2023-03-29T05:27:02.301Z,101266.81
2023-03-29T05:30:06.074Z,101276.28
2023-03-29T05:33:09.703Z,101272.84
2023-03-29T05:36:14.725Z,101268.56
2023-03-29T05:39:18.632Z,101271.16
2023-03-29T05:42:22.546Z,101271.19
2023-03-29T05:45:28.575Z,101273.78
2023-03-29T05:48:32.519Z,101273.81
2023-03-29T05:51:36.333Z,101273.00
2023-03-29T05:54:40.075Z,101279.91
2023-03-29T05:57:44.372Z,101274.72
2023-03-29T06:00:50.236Z,101282.47
2023-03-29T06:03:56.267Z,101292.84
2023-03-29T06:07:01.264Z,101289.41
2023-03-29T06:10:05.684Z,101295.47
2023-03-29T06:13:09.091Z,101294.59
2023-03-29T06:16:13.316Z,101293.72
2023-03-29T06:19:16.016Z,101288.56
2023-03-29T06:22:19.201Z,101297.16
2023-03-29T06:25:22.598Z,101292.00
2023-03-29T06:28:26.063Z,101294.59
2023-03-29T06:31:30.034Z,101296.31
2023-03-29T06:34:36.108Z,101304.94
2023-03-29T06:37:49.344Z,101300.59
2023-03-29T06:40:59.734Z,101304.87
2023-03-29T06:44:04.293Z,101303.09
2023-03-29T06:47:07.338Z,101296.94
2023-03-29T06:50:11.528Z,101292.47
2023-03-29T06:53:15.707Z,101295.03
2023-03-29T06:56:18.440Z,101298.13
2023-03-29T06:59:21.475Z,101295.97
2023-03-29T07:02:25.578Z,101297.38
2023-03-29T07:05:29.236Z,101301.09
2023-03-29T07:08:32.382Z,101306.41
2023-03-29T07:11:35.807Z,101308.25
2023-03-29T07:14:39.788Z,101319.62
2023-03-29T07:17:42.815Z,101322.16
2023-03-29T07:20:45.415Z,101320.12
2023-03-29T07:23:48.273Z,101329.34
2023-03-29T07:27:03.385Z,101322.19
2023-03-29T07:30:11.211Z,101326.09
2023-03-29T07:33:14.524Z,101326.44
2023-03-29T07:36:18.559Z,101334.69
2023-03-29T07:39:22.369Z,101328.22
2023-03-29T07:42:28.115Z,101335.75
2023-03-29T07:45:31.236Z,101335.44
2023-03-29T07:48:36.860Z,101322.22
2023-03-29T07:51:40.209Z,101320.69
2023-03-29T07:54:43.284Z,101325.78
2023-03-29T07:57:46.598Z,101332.66
2023-03-29T08:00:49.297Z,101339.69
2023-03-29T08:03:53.673Z,101338.81
2023-03-29T08:07:33.630Z,101335.28
2023-03-29T08:10:39.394Z,101336.28
2023-03-29T08:13:43.035Z,101330.28
2023-03-29T08:16:47.772Z,101327.84
2023-03-29T08:19:51.536Z,101329.53
2023-03-29T08:22:55.638Z,101330.00
2023-03-29T08:25:58.621Z,101318.13
2023-03-29T08:29:01.821Z,101326.25
2023-03-29T08:32:05.620Z,101329.72
2023-03-29T08:35:09.718Z,101319.41
2023-03-29T08:38:12.641Z,101322.63
2023-03-29T08:41:33.143Z,101327.91
2023-03-29T08:44:51.750Z,101318.63
2023-03-29T08:48:16.944Z,101323.03
2023-03-29T08:51:35.042Z,101318.56
2023-03-29T08:54:45.749Z,101312.84
2023-03-29T08:57:58.411Z,101318.28
2023-03-29T09:01:05.946Z,101305.34
2023-03-29T09:04:17.224Z,101303.81
2023-03-29T09:07:20.528Z,101290.94
2023-03-29T09:10:39.528Z,101290.25
2023-03-29T09:14:20.242Z,101292.09
2023-03-29T09:17:42.568Z,101286.38
2023-03-29T09:21:04.198Z,101277.37
2023-03-29T09:24:29.599Z,101274.56
2023-03-29T09:27:36.863Z,101277.06
2023-03-29T09:30:58.528Z,101271.88
2023-03-29T09:34:10.393Z,101264.84
2023-03-29T09:37:25.803Z,101264.03
2023-03-29T09:40:39.414Z,101271.63
2023-03-29T09:43:44.296Z,101265.81
2023-03-29T09:46:58.354Z,101259.53
2023-03-29T09:50:31.547Z,101254.56
2023-03-29T09:53:36.103Z,101251.69
2023-03-29T09:56:42.919Z,101250.59
2023-03-29T09:59:48.481Z,101234.53
2023-03-29T10:02:57.163Z,101238.84
2023-03-29T10:06:02.834Z,101233.53
2023-03-29T10:09:20.825Z,101227.84
2023-03-29T10:12:24.839Z,101221.06
2023-03-29T10:15:30.421Z,101220.09
2023-03-29T10:18:40.019Z,101219.53
2023-03-29T10:21:42.413Z,101215.16
2023-03-29T10:24:52.048Z,101217.66
2023-03-29T10:28:17.683Z,101219.94
2023-03-29T10:31:22.819Z,101212.87
2023-03-29T10:34:28.085Z,101208.66
2023-03-29T10:37:31.597Z,101204.25
2023-03-29T10:40:35.638Z,101194.13
2023-03-29T10:43:44.429Z,101198.47
2023-03-29T10:46:47.085Z,101194.72
2023-03-29T10:49:58.875Z,101194.16
2023-03-29T10:53:03.098Z,101194.91
2023-03-29T10:56:11.878Z,101188.78
2023-03-29T10:59:23.088Z,101188.50
2023-03-29T11:02:35.543Z,101190.28
2023-03-29T11:05:53.290Z,101184.59
2023-03-29T11:09:14.144Z,101183.19
2023-03-29T11:12:36.690Z,101175.44
2023-03-29T11:16:06.548Z,101171.47
2023-03-29T11:19:20.750Z,101174.16
2023-03-29T11:22:41.462Z,101166.75
2023-03-29T11:26:10.130Z,101175.69
2023-03-29T11:29:22.963Z,101175.59
2023-03-29T11:32:34.313Z,101166.22
2023-03-29T11:35:58.654Z,101171.00
2023-03-29T11:39:42.291Z,101161.06
2023-03-29T11:42:49.957Z,101154.31
2023-03-29T11:46:18.126Z,101143.66
2023-03-29T11:49:37.362Z,101152.37
2023-03-29T11:52:54.185Z,101143.44
2023-03-29T11:56:08.758Z,101145.25
2023-03-29T11:59:41.634Z,101144.97
2023-03-29T12:03:07.028Z,101135.84
2023-03-29T12:06:57.068Z,101132.53
2023-03-29T12:10:08.614Z,101126.84
2023-03-29T12:13:14.282Z,101119.97
2023-03-29T12:16:24.735Z,101114.00
2023-03-29T12:19:50.405Z,101103.91
2023-03-29T12:22:54.604Z,101097.69
2023-03-29T12:26:19.883Z,101100.28
2023-03-29T12:29:43.887Z,101099.84
2023-03-29T12:33:21.594Z,101085.78
2023-03-29T12:36:49.154Z,101081.50
2023-03-29T12:39:53.869Z,101088.88
2023-03-29T12:43:08.897Z,101081.69
2023-03-29T12:46:26.566Z,101088.81
2023-03-29T12:49:40.813Z,101081.34
2023-03-29T12:52:44.326Z,101066.97
2023-03-29T12:55:49.800Z,101077.53
2023-03-29T12:59:36.115Z,101079.66
2023-03-29T13:02:39.461Z,101074.00
2023-03-29T13:05:44.440Z,101076.44
2023-03-29T13:08:57.337Z,101087.09
2023-03-29T13:12:18.622Z,101076.94
2023-03-29T13:15:26.895Z,101070.81
2023-03-29T13:18:48.392Z,101065.16
2023-03-29T13:22:02.988Z,101050.63
2023-03-29T13:25:32.646Z,101049.88
2023-03-29T13:28:43.128Z,101039.81
2023-03-29T13:31:58.340Z,101046.75
2023-03-29T13:35:18.900Z,101045.16
2023-03-29T13:38:27.699Z,101046.91
2023-03-29T13:41:39.419Z,101037.19
2023-03-29T13:44:44.890Z,101030.19
2023-03-29T13:48:02.360Z,101030.88
2023-03-29T13:51:13.644Z,101023.97
2023-03-29T13:54:24.823Z,101029.28
2023-03-29T13:57:33.007Z,101021.97
2023-03-29T14:01:02.485Z,101022.25
2023-03-29T14:04:08.281Z,101014.78
2023-03-29T14:07:14.620Z,101014.38
2023-03-29T14:10:27.415Z,101011.25
2023-03-29T14:13:31.175Z,101022.00
2023-03-29T14:16:37.345Z,101023.97
2023-03-29T14:19:40.122Z,101008.59
2023-03-29T14:22:44.222Z,101010.41
2023-03-29T14:25:47.172Z,101009.09
2023-03-29T14:28:52.884Z,101002.25
2023-03-29T14:31:55.380Z,101003.53
2023-03-29T14:34:58.701Z,101006.63
2023-03-29T14:38:01.883Z,101004.13
2023-03-29T14:41:05.116Z,100993.47
2023-03-29T14:44:08.319Z,101005.22
2023-03-29T14:47:25.495Z,100998.25
2023-03-29T14:50:30.878Z,100997.53
2023-03-29T14:53:37.048Z,100992.47
2023-03-29T14:56:39.546Z,100982.41
2023-03-29T14:59:42.848Z,100988.63
2023-03-29T15:03:04.482Z,100992.38
2023-03-29T15:06:07.502Z,100987.22
2023-03-29T15:09:17.784Z,100986.84
2023-03-29T15:12:20.769Z,100985.06
2023-03-29T15:15:25.708Z,100980.78
2023-03-29T15:18:41.410Z,100976.22
2023-03-29T15:21:45.278Z,100977.66
2023-03-29T15:24:48.776Z,100973.75
2023-03-29T15:27:55.931Z,100971.50
2023-03-29T15:31:07.711Z,100966.13
2023-03-29T15:34:12.423Z,100966.06
2023-03-29T15:37:15.025Z,100970.09
2023-03-29T15:40:22.351Z,100966.28
2023-03-29T15:43:26.208Z,100964.09
2023-03-29T15:46:28.757Z,100949.53
2023-03-29T15:49:31.415Z,100945.37
2023-03-29T15:52:33.720Z,100943.22
2023-03-29T15:55:41.168Z,100945.31
2023-03-29T15:58:44.225Z,100946.31
2023-03-29T16:01:47.527Z,100947.25
2023-03-29T16:04:50.708Z,100938.78
2023-03-29T16:07:53.286Z,100944.63
2023-03-29T16:10:56.155Z,100942.88
2023-03-29T16:13:59.424Z,100934.63
2023-03-29T16:17:06.157Z,100931.38
2023-03-29T16:20:10.142Z,100938.34
2023-03-29T16:23:13.112Z,100935.53
2023-03-29T16:26:17.014Z,100924.75
2023-03-29T16:29:20.460Z,100934.41
2023-03-29T16:32:22.867Z,100927.72
2023-03-29T16:35:28.963Z,100919.09
2023-03-29T16:38:31.472Z,100918.72
2023-03-29T16:41:34.120Z,100917.91
2023-03-29T16:44:36.600Z,100917.94
2023-03-29T16:47:39.548Z,100916.56
2023-03-29T16:50:42.154Z,100922.91
2023-03-29T16:53:44.928Z,100922.44
2023-03-29T16:56:47.407Z,100921.94
2023-03-29T16:59:50.552Z,100927.38
2023-03-29T17:02:52.937Z,100922.94
2023-03-29T17:05:57.972Z,100927.22
2023-03-29T17:09:00.705Z,100924.00
2023-03-29T17:12:03.635Z,100923.41
2023-03-29T17:15:07.802Z,100922.38
